NFSM7: N Fork Spring River nr Purcell, MO

                                SHEF ID:       NFSM7     N Fork Spring River nr Purcell, MO
STATION TYPE:

STAGE RIV-FLOW
ft cfs
Ccp-Rev Ccp-Rev
(America/Chicago)
04/24 00:00 4.30 303
04/24 01:00 4.34 314
04/24 02:00 4.38 324
04/24 03:00 4.41 333
04/24 04:00 4.45 344
04/24 05:00 4.49 355
04/24 06:00 4.56 376
04/24 07:00 4.68 412
04/24 08:00 4.86 470
04/24 09:00 5.00 517
04/24 10:00 5.10 552
04/24 11:00 5.19 585
04/24 12:00 5.25 608
04/24 13:00 5.28 619
04/24 14:00 5.36 650
04/24 15:00 5.46 689
04/24 16:00 5.56 730
04/24 17:00 5.70 788
04/24 18:00 5.81 835
04/24 19:00 5.88 866
04/24 20:00 5.89 870
04/24 21:00 5.87 861
04/24 22:00 5.82 839
04/24 23:00 5.77 ----
Data processed at Sat 25Apr2026 04:45 GMT

NOTICE: If you are parsing this page

Please convert to using our Data API. Starting early 2026 we will be migrating to: https://water.usace.army.mil with modern pages rendered in JavaScript. When this migration completes you will no longer be able to scrape this page! CWMSDataAPI (CDA)

Timeseries IDs (TSIDs)

TSIDs used from left to right in the data table
PURS.Stage.Inst.1Hour.0.Ccp-Rev
PURS.Flow.Inst.1Hour.0.Ccp-Rev

                            

All information presented herein is the property of the government of the United States of America and may be revised or deleted at any time without prior notice. Dissemination of this information without the expressed written consent of the Public Affairs Office, Tulsa District U.S. Army Corps of Engineers is strictly prohibited. These data are gathered electronically and, as presented, have NOT undergone any form of quality control. These data are NOT guaranteed to be valid or correct.